Conroe, Texas
Current Conditions -  °F | °C
As of 4:53 PM on Saturday 20 Dec 2014 (Local Time) from KCXO Reporting Station
Overcast Overcast  
Wind Chill: 52°   Ceiling: 1900
Heat Index: 52°   Visibility: 10mi
Dew Point: 45°   Wind: 5mph
Humidity: 77%   Direction: 20°NNE
Pressure: 30.17"   Gusts: NA
Location:  30.31°N, 95.45°W
Report Text: KCXO 202253Z 02004KT 10SM OVC019 11/07 A3017 RMK AO2 SLP215 T01110072
Loading
Personal Weather Stations






























Interactive Weather Map New forecast layout! Learn more

10-Day Weather Forecast

Advertisements
Track Severe Weather on mobile